Terminal Aerodrome Forecast
Issued by NWS

Home | Current Version | Previous Version | Text Only | Print | Product List | Glossary On
Versions: 1 2 3 4 5 6 7 8 9 10 11 12 13 14 15 16 17 18 19 20 21 22 23 24 25
000
FTUS44 KLIX 261100 RRA
TAFHDC
TAF
KHDC 261140Z 2612/2712 08004KT P6SM FEW030 BKN200
     FM261700 09004KT P6SM BKN030
     FM262300 11006KT P6SM VCSH SCT025 BKN060
     FM270300 10009KT P6SM -RA OVC020
     FM271000 11008KT 4SM SHRA OVC008=

USA.gov is the U.S. government's official web portal to all federal, state and local government web resources and services.